sensor_id;sensor_type;location;lat;lon;timestamp;P1;durP1;ratioP1;P2;durP2;ratioP2
5171;SDS011;2605;49.770;9.868;2022-12-18T00:00:43;60.93;;;31.03;;
5171;SDS011;2605;49.770;9.868;2022-12-18T00:03:09;57.10;;;31.97;;
5171;SDS011;2605;49.770;9.868;2022-12-18T00:05:35;50.80;;;29.47;;
5171;SDS011;2605;49.770;9.868;2022-12-18T00:08:01;57.97;;;32.13;;
5171;SDS011;2605;49.770;9.868;2022-12-18T00:10:27;56.33;;;32.57;;
5171;SDS011;2605;49.770;9.868;2022-12-18T00:12:53;51.23;;;30.53;;
5171;SDS011;2605;49.770;9.868;2022-12-18T00:15:19;52.13;;;31.53;;
5171;SDS011;2605;49.770;9.868;2022-12-18T00:17:44;47.33;;;30.20;;
5171;SDS011;2605;49.770;9.868;2022-12-18T00:20:10;47.50;;;31.03;;
5171;SDS011;2605;49.770;9.868;2022-12-18T00:22:35;46.40;;;30.13;;
5171;SDS011;2605;49.770;9.868;2022-12-18T00:25:01;43.20;;;29.97;;
5171;SDS011;2605;49.770;9.868;2022-12-18T00:27:27;67.53;;;33.73;;
5171;SDS011;2605;49.770;9.868;2022-12-18T00:29:52;47.87;;;29.30;;
5171;SDS011;2605;49.770;9.868;2022-12-18T00:32:18;55.60;;;31.10;;
5171;SDS011;2605;49.770;9.868;2022-12-18T00:34:43;47.90;;;31.07;;
5171;SDS011;2605;49.770;9.868;2022-12-18T00:37:09;44.93;;;28.20;;
5171;SDS011;2605;49.770;9.868;2022-12-18T00:39:34;54.13;;;28.90;;
5171;SDS011;2605;49.770;9.868;2022-12-18T00:42:00;51.47;;;26.93;;
5171;SDS011;2605;49.770;9.868;2022-12-18T00:44:44;50.93;;;30.80;;
5171;SDS011;2605;49.770;9.868;2022-12-18T00:47:09;56.33;;;31.93;;
5171;SDS011;2605;49.770;9.868;2022-12-18T00:49:35;58.13;;;31.10;;
5171;SDS011;2605;49.770;9.868;2022-12-18T00:52:00;51.83;;;30.47;;
5171;SDS011;2605;49.770;9.868;2022-12-18T00:54:26;49.40;;;29.13;;
5171;SDS011;2605;49.770;9.868;2022-12-18T00:56:51;50.43;;;30.10;;
5171;SDS011;2605;49.770;9.868;2022-12-18T00:59:17;43.93;;;28.30;;
5171;SDS011;2605;49.770;9.868;2022-12-18T01:01:43;51.47;;;28.67;;
5171;SDS011;2605;49.770;9.868;2022-12-18T01:04:09;53.30;;;28.97;;
5171;SDS011;2605;49.770;9.868;2022-12-18T01:06:35;49.87;;;28.90;;
5171;SDS011;2605;49.770;9.868;2022-12-18T01:09:00;48.17;;;29.90;;
5171;SDS011;2605;49.770;9.868;2022-12-18T01:11:26;49.50;;;28.13;;
5171;SDS011;2605;49.770;9.868;2022-12-18T01:13:53;48.33;;;28.83;;
5171;SDS011;2605;49.770;9.868;2022-12-18T01:16:19;43.43;;;25.50;;
5171;SDS011;2605;49.770;9.868;2022-12-18T01:18:45;51.57;;;28.17;;
5171;SDS011;2605;49.770;9.868;2022-12-18T01:21:12;48.83;;;27.40;;
5171;SDS011;2605;49.770;9.868;2022-12-18T01:23:40;51.33;;;27.87;;
5171;SDS011;2605;49.770;9.868;2022-12-18T01:26:06;47.20;;;28.30;;
5171;SDS011;2605;49.770;9.868;2022-12-18T01:28:33;43.83;;;28.33;;
5171;SDS011;2605;49.770;9.868;2022-12-18T01:31:08;47.20;;;28.40;;
5171;SDS011;2605;49.770;9.868;2022-12-18T01:33:35;38.77;;;25.47;;
5171;SDS011;2605;49.770;9.868;2022-12-18T01:36:00;52.23;;;27.40;;
5171;SDS011;2605;49.770;9.868;2022-12-18T01:38:27;44.87;;;27.67;;
5171;SDS011;2605;49.770;9.868;2022-12-18T01:41:00;47.73;;;26.93;;
5171;SDS011;2605;49.770;9.868;2022-12-18T01:43:45;46.10;;;27.73;;
5171;SDS011;2605;49.770;9.868;2022-12-18T01:46:11;51.50;;;28.07;;
5171;SDS011;2605;49.770;9.868;2022-12-18T01:48:37;47.13;;;26.57;;
5171;SDS011;2605;49.770;9.868;2022-12-18T01:51:04;43.37;;;24.90;;
5171;SDS011;2605;49.770;9.868;2022-12-18T01:53:32;46.10;;;26.60;;
5171;SDS011;2605;49.770;9.868;2022-12-18T01:55:58;49.13;;;28.43;;
5171;SDS011;2605;49.770;9.868;2022-12-18T01:58:30;49.63;;;26.50;;
5171;SDS011;2605;49.770;9.868;2022-12-18T02:01:18;40.43;;;25.13;;
5171;SDS011;2605;49.770;9.868;2022-12-18T02:03:46;60.13;;;29.13;;
5171;SDS011;2605;49.770;9.868;2022-12-18T02:11:44;44.83;;;25.60;;
5171;SDS011;2605;49.770;9.868;2022-12-18T02:14:51;37.60;;;25.90;;
5171;SDS011;2605;49.770;9.868;2022-12-18T02:17:36;45.57;;;25.00;;
5171;SDS011;2605;49.770;9.868;2022-12-18T02:20:17;43.53;;;26.20;;
5171;SDS011;2605;49.770;9.868;2022-12-18T02:26:19;45.07;;;26.23;;
5171;SDS011;2605;49.770;9.868;2022-12-18T02:28:56;40.73;;;25.70;;
5171;SDS011;2605;49.770;9.868;2022-12-18T02:31:31;49.70;;;26.27;;
5171;SDS011;2605;49.770;9.868;2022-12-18T02:34:03;51.23;;;26.67;;
5171;SDS011;2605;49.770;9.868;2022-12-18T02:36:32;49.07;;;26.17;;
5171;SDS011;2605;49.770;9.868;2022-12-18T02:39:00;57.70;;;28.03;;
5171;SDS011;2605;49.770;9.868;2022-12-18T02:41:27;40.60;;;28.20;;
5171;SDS011;2605;49.770;9.868;2022-12-18T02:43:55;54.33;;;27.07;;
5171;SDS011;2605;49.770;9.868;2022-12-18T02:46:32;47.07;;;28.43;;
5171;SDS011;2605;49.770;9.868;2022-12-18T02:49:04;48.63;;;26.90;;
5171;SDS011;2605;49.770;9.868;2022-12-18T02:51:53;46.63;;;26.23;;
5171;SDS011;2605;49.770;9.868;2022-12-18T03:05:29;56.80;;;28.30;;
5171;SDS011;2605;49.770;9.868;2022-12-18T03:08:06;52.23;;;26.43;;
5171;SDS011;2605;49.770;9.868;2022-12-18T03:10:37;40.80;;;25.20;;
5171;SDS011;2605;49.770;9.868;2022-12-18T03:13:07;58.60;;;27.07;;
5171;SDS011;2605;49.770;9.868;2022-12-18T03:15:37;48.17;;;27.70;;
5171;SDS011;2605;49.770;9.868;2022-12-18T03:18:14;50.50;;;29.07;;
5171;SDS011;2605;49.770;9.868;2022-12-18T03:20:45;43.17;;;28.10;;
5171;SDS011;2605;49.770;9.868;2022-12-18T03:23:15;60.63;;;29.20;;
5171;SDS011;2605;49.770;9.868;2022-12-18T03:25:44;52.57;;;27.23;;
5171;SDS011;2605;49.770;9.868;2022-12-18T03:28:12;46.73;;;26.67;;
5171;SDS011;2605;49.770;9.868;2022-12-18T03:30:41;44.63;;;26.47;;
5171;SDS011;2605;49.770;9.868;2022-12-18T03:33:12;48.33;;;26.40;;
5171;SDS011;2605;49.770;9.868;2022-12-18T03:35:44;58.10;;;27.47;;
5171;SDS011;2605;49.770;9.868;2022-12-18T03:38:10;44.37;;;27.23;;
5171;SDS011;2605;49.770;9.868;2022-12-18T03:43:25;49.23;;;26.57;;
5171;SDS011;2605;49.770;9.868;2022-12-18T03:46:05;42.10;;;25.57;;
5171;SDS011;2605;49.770;9.868;2022-12-18T03:48:38;41.40;;;25.73;;
5171;SDS011;2605;49.770;9.868;2022-12-18T03:51:10;48.87;;;27.43;;
5171;SDS011;2605;49.770;9.868;2022-12-18T03:53:43;43.00;;;25.03;;
5171;SDS011;2605;49.770;9.868;2022-12-18T03:56:18;59.83;;;27.37;;
5171;SDS011;2605;49.770;9.868;2022-12-18T03:58:48;46.10;;;24.50;;
5171;SDS011;2605;49.770;9.868;2022-12-18T04:01:17;45.00;;;25.13;;
5171;SDS011;2605;49.770;9.868;2022-12-18T04:03:46;43.60;;;25.43;;
5171;SDS011;2605;49.770;9.868;2022-12-18T04:06:14;56.63;;;26.60;;
5171;SDS011;2605;49.770;9.868;2022-12-18T04:08:40;45.37;;;25.67;;
5171;SDS011;2605;49.770;9.868;2022-12-18T04:11:06;42.77;;;25.00;;
5171;SDS011;2605;49.770;9.868;2022-12-18T04:13:33;42.53;;;25.97;;
5171;SDS011;2605;49.770;9.868;2022-12-18T04:16:00;40.30;;;24.40;;
5171;SDS011;2605;49.770;9.868;2022-12-18T04:18:26;50.60;;;26.53;;
5171;SDS011;2605;49.770;9.868;2022-12-18T04:20:52;41.80;;;25.30;;
5171;SDS011;2605;49.770;9.868;2022-12-18T04:23:17;53.47;;;26.70;;
5171;SDS011;2605;49.770;9.868;2022-12-18T04:25:43;48.27;;;26.87;;
5171;SDS011;2605;49.770;9.868;2022-12-18T04:28:08;39.37;;;24.70;;
5171;SDS011;2605;49.770;9.868;2022-12-18T04:30:34;61.80;;;25.50;;
5171;SDS011;2605;49.770;9.868;2022-12-18T04:32:59;45.30;;;25.10;;
5171;SDS011;2605;49.770;9.868;2022-12-18T04:35:25;54.40;;;28.23;;
5171;SDS011;2605;49.770;9.868;2022-12-18T04:37:51;54.53;;;27.17;;
5171;SDS011;2605;49.770;9.868;2022-12-18T04:40:16;46.97;;;27.50;;
5171;SDS011;2605;49.770;9.868;2022-12-18T04:42:42;50.47;;;27.37;;
5171;SDS011;2605;49.770;9.868;2022-12-18T04:45:07;54.73;;;28.30;;
5171;SDS011;2605;49.770;9.868;2022-12-18T04:47:33;58.07;;;30.60;;
5171;SDS011;2605;49.770;9.868;2022-12-18T04:49:59;64.23;;;28.77;;
5171;SDS011;2605;49.770;9.868;2022-12-18T04:52:24;48.50;;;25.10;;
5171;SDS011;2605;49.770;9.868;2022-12-18T04:54:50;53.50;;;28.43;;
5171;SDS011;2605;49.770;9.868;2022-12-18T04:57:16;60.80;;;27.87;;
5171;SDS011;2605;49.770;9.868;2022-12-18T04:59:43;42.33;;;26.37;;
5171;SDS011;2605;49.770;9.868;2022-12-18T05:02:09;46.10;;;23.67;;
5171;SDS011;2605;49.770;9.868;2022-12-18T05:04:35;50.00;;;24.43;;
5171;SDS011;2605;49.770;9.868;2022-12-18T05:07:00;52.97;;;25.37;;
5171;SDS011;2605;49.770;9.868;2022-12-18T05:09:26;47.20;;;25.00;;
5171;SDS011;2605;49.770;9.868;2022-12-18T05:11:51;54.17;;;30.47;;
5171;SDS011;2605;49.770;9.868;2022-12-18T05:14:17;47.77;;;25.30;;
5171;SDS011;2605;49.770;9.868;2022-12-18T05:16:43;43.50;;;25.37;;
5171;SDS011;2605;49.770;9.868;2022-12-18T05:19:08;61.27;;;24.27;;
5171;SDS011;2605;49.770;9.868;2022-12-18T05:21:34;53.47;;;27.40;;
5171;SDS011;2605;49.770;9.868;2022-12-18T05:23:59;47.17;;;26.20;;
5171;SDS011;2605;49.770;9.868;2022-12-18T05:26:25;54.77;;;24.60;;
5171;SDS011;2605;49.770;9.868;2022-12-18T05:28:50;47.50;;;25.90;;
5171;SDS011;2605;49.770;9.868;2022-12-18T05:31:16;50.57;;;24.17;;
5171;SDS011;2605;49.770;9.868;2022-12-18T05:33:42;41.20;;;24.70;;
5171;SDS011;2605;49.770;9.868;2022-12-18T05:36:08;46.97;;;24.57;;
5171;SDS011;2605;49.770;9.868;2022-12-18T05:38:35;46.00;;;23.67;;
5171;SDS011;2605;49.770;9.868;2022-12-18T05:41:01;48.97;;;24.87;;
5171;SDS011;2605;49.770;9.868;2022-12-18T05:43:27;52.33;;;27.87;;
5171;SDS011;2605;49.770;9.868;2022-12-18T05:45:53;46.57;;;25.20;;
5171;SDS011;2605;49.770;9.868;2022-12-18T05:48:19;39.60;;;23.43;;
5171;SDS011;2605;49.770;9.868;2022-12-18T05:50:45;58.50;;;25.60;;
5171;SDS011;2605;49.770;9.868;2022-12-18T05:53:13;51.03;;;27.50;;
5171;SDS011;2605;49.770;9.868;2022-12-18T05:55:40;33.97;;;15.40;;
5171;SDS011;2605;49.770;9.868;2022-12-18T05:58:07;32.43;;;18.43;;
5171;SDS011;2605;49.770;9.868;2022-12-18T06:00:35;51.67;;;28.27;;
5171;SDS011;2605;49.770;9.868;2022-12-18T06:03:04;49.67;;;27.30;;
5171;SDS011;2605;49.770;9.868;2022-12-18T06:05:34;19.57;;;12.00;;
5171;SDS011;2605;49.770;9.868;2022-12-18T06:08:04;40.40;;;21.13;;
5171;SDS011;2605;49.770;9.868;2022-12-18T06:10:29;40.43;;;20.43;;
5171;SDS011;2605;49.770;9.868;2022-12-18T06:12:55;56.03;;;28.03;;
5171;SDS011;2605;49.770;9.868;2022-12-18T06:15:20;37.87;;;22.67;;
5171;SDS011;2605;49.770;9.868;2022-12-18T06:17:46;37.80;;;23.57;;
5171;SDS011;2605;49.770;9.868;2022-12-18T06:20:14;43.27;;;24.10;;
5171;SDS011;2605;49.770;9.868;2022-12-18T06:22:40;50.80;;;28.40;;
5171;SDS011;2605;49.770;9.868;2022-12-18T06:25:05;48.53;;;28.10;;
5171;SDS011;2605;49.770;9.868;2022-12-18T06:27:32;49.13;;;26.97;;
5171;SDS011;2605;49.770;9.868;2022-12-18T06:29:58;31.87;;;16.57;;
5171;SDS011;2605;49.770;9.868;2022-12-18T06:32:24;45.30;;;25.73;;
5171;SDS011;2605;49.770;9.868;2022-12-18T06:34:50;46.40;;;24.57;;
5171;SDS011;2605;49.770;9.868;2022-12-18T06:37:15;47.97;;;24.20;;
5171;SDS011;2605;49.770;9.868;2022-12-18T06:39:41;43.60;;;23.90;;
5171;SDS011;2605;49.770;9.868;2022-12-18T06:42:06;46.53;;;23.93;;
5171;SDS011;2605;49.770;9.868;2022-12-18T06:44:32;51.60;;;21.90;;
5171;SDS011;2605;49.770;9.868;2022-12-18T06:46:57;34.33;;;19.07;;
5171;SDS011;2605;49.770;9.868;2022-12-18T06:49:23;46.60;;;24.50;;
5171;SDS011;2605;49.770;9.868;2022-12-18T06:51:48;40.60;;;21.40;;
5171;SDS011;2605;49.770;9.868;2022-12-18T06:54:14;45.17;;;22.33;;
5171;SDS011;2605;49.770;9.868;2022-12-18T06:56:39;48.60;;;24.37;;
5171;SDS011;2605;49.770;9.868;2022-12-18T06:59:05;50.67;;;22.60;;
5171;SDS011;2605;49.770;9.868;2022-12-18T07:01:31;36.80;;;20.50;;
5171;SDS011;2605;49.770;9.868;2022-12-18T07:03:57;31.80;;;15.83;;
5171;SDS011;2605;49.770;9.868;2022-12-18T07:06:23;51.23;;;21.50;;
5171;SDS011;2605;49.770;9.868;2022-12-18T07:08:50;48.30;;;22.50;;
5171;SDS011;2605;49.770;9.868;2022-12-18T07:11:18;47.33;;;21.90;;
5171;SDS011;2605;49.770;9.868;2022-12-18T07:13:44;50.13;;;22.83;;
5171;SDS011;2605;49.770;9.868;2022-12-18T07:16:13;38.60;;;21.03;;
5171;SDS011;2605;49.770;9.868;2022-12-18T07:18:40;41.53;;;21.50;;
5171;SDS011;2605;49.770;9.868;2022-12-18T07:21:06;56.00;;;24.40;;
5171;SDS011;2605;49.770;9.868;2022-12-18T07:23:34;53.70;;;22.03;;
5171;SDS011;2605;49.770;9.868;2022-12-18T07:26:04;39.40;;;18.87;;
5171;SDS011;2605;49.770;9.868;2022-12-18T07:28:32;42.10;;;20.93;;
5171;SDS011;2605;49.770;9.868;2022-12-18T07:30:58;48.37;;;23.87;;
5171;SDS011;2605;49.770;9.868;2022-12-18T07:33:28;44.50;;;21.90;;
5171;SDS011;2605;49.770;9.868;2022-12-18T07:35:53;43.53;;;21.60;;
5171;SDS011;2605;49.770;9.868;2022-12-18T07:38:19;46.50;;;23.53;;
5171;SDS011;2605;49.770;9.868;2022-12-18T07:40:44;49.03;;;22.20;;
5171;SDS011;2605;49.770;9.868;2022-12-18T07:43:10;46.37;;;22.80;;
5171;SDS011;2605;49.770;9.868;2022-12-18T07:45:35;44.27;;;21.20;;
5171;SDS011;2605;49.770;9.868;2022-12-18T07:48:01;47.50;;;21.03;;
5171;SDS011;2605;49.770;9.868;2022-12-18T07:50:26;48.30;;;21.33;;
5171;SDS011;2605;49.770;9.868;2022-12-18T07:52:52;43.23;;;21.40;;
5171;SDS011;2605;49.770;9.868;2022-12-18T07:55:17;40.20;;;19.73;;
5171;SDS011;2605;49.770;9.868;2022-12-18T07:57:43;42.53;;;19.20;;
5171;SDS011;2605;49.770;9.868;2022-12-18T08:00:09;37.90;;;19.63;;
5171;SDS011;2605;49.770;9.868;2022-12-18T08:02:35;47.87;;;22.50;;
5171;SDS011;2605;49.770;9.868;2022-12-18T08:05:00;40.90;;;21.77;;
5171;SDS011;2605;49.770;9.868;2022-12-18T08:07:26;30.53;;;18.30;;
5171;SDS011;2605;49.770;9.868;2022-12-18T08:09:51;39.67;;;20.00;;
5171;SDS011;2605;49.770;9.868;2022-12-18T08:12:17;52.67;;;21.07;;
5171;SDS011;2605;49.770;9.868;2022-12-18T08:14:42;41.10;;;21.30;;
5171;SDS011;2605;49.770;9.868;2022-12-18T08:17:08;35.90;;;19.53;;
5171;SDS011;2605;49.770;9.868;2022-12-18T08:19:33;41.27;;;18.67;;
5171;SDS011;2605;49.770;9.868;2022-12-18T08:21:59;43.37;;;20.70;;
5171;SDS011;2605;49.770;9.868;2022-12-18T08:24:24;38.67;;;20.50;;
5171;SDS011;2605;49.770;9.868;2022-12-18T08:26:50;33.40;;;16.17;;
5171;SDS011;2605;49.770;9.868;2022-12-18T08:29:19;39.20;;;20.57;;
5171;SDS011;2605;49.770;9.868;2022-12-18T08:31:44;44.77;;;22.13;;
5171;SDS011;2605;49.770;9.868;2022-12-18T08:34:10;35.33;;;20.87;;
5171;SDS011;2605;49.770;9.868;2022-12-18T08:36:35;45.63;;;21.30;;
5171;SDS011;2605;49.770;9.868;2022-12-18T08:39:01;42.70;;;23.00;;
5171;SDS011;2605;49.770;9.868;2022-12-18T08:41:26;34.60;;;20.70;;
5171;SDS011;2605;49.770;9.868;2022-12-18T08:43:55;46.90;;;22.50;;
5171;SDS011;2605;49.770;9.868;2022-12-18T08:46:40;43.73;;;21.33;;
5171;SDS011;2605;49.770;9.868;2022-12-18T08:49:07;39.30;;;21.47;;
5171;SDS011;2605;49.770;9.868;2022-12-18T08:51:34;41.43;;;21.87;;
5171;SDS011;2605;49.770;9.868;2022-12-18T08:54:00;36.20;;;20.73;;
5171;SDS011;2605;49.770;9.868;2022-12-18T08:56:29;45.07;;;22.40;;
5171;SDS011;2605;49.770;9.868;2022-12-18T08:58:55;45.47;;;21.90;;
5171;SDS011;2605;49.770;9.868;2022-12-18T09:01:21;40.23;;;21.87;;
5171;SDS011;2605;49.770;9.868;2022-12-18T09:03:49;42.10;;;22.20;;
5171;SDS011;2605;49.770;9.868;2022-12-18T09:06:16;45.47;;;22.13;;
5171;SDS011;2605;49.770;9.868;2022-12-18T09:08:44;46.90;;;22.30;;
5171;SDS011;2605;49.770;9.868;2022-12-18T09:11:14;41.90;;;19.40;;
5171;SDS011;2605;49.770;9.868;2022-12-18T09:13:51;40.40;;;23.10;;
5171;SDS011;2605;49.770;9.868;2022-12-18T09:16:17;41.80;;;22.40;;
5171;SDS011;2605;49.770;9.868;2022-12-18T09:18:44;43.90;;;22.00;;
5171;SDS011;2605;49.770;9.868;2022-12-18T09:21:11;46.30;;;23.50;;
5171;SDS011;2605;49.770;9.868;2022-12-18T09:23:38;40.30;;;24.17;;
5171;SDS011;2605;49.770;9.868;2022-12-18T09:26:04;40.80;;;20.97;;
5171;SDS011;2605;49.770;9.868;2022-12-18T09:28:29;52.47;;;25.13;;
5171;SDS011;2605;49.770;9.868;2022-12-18T09:30:55;41.27;;;20.83;;
5171;SDS011;2605;49.770;9.868;2022-12-18T09:33:20;42.10;;;21.20;;
5171;SDS011;2605;49.770;9.868;2022-12-18T09:35:46;46.07;;;23.13;;
5171;SDS011;2605;49.770;9.868;2022-12-18T09:38:12;44.63;;;21.83;;
5171;SDS011;2605;49.770;9.868;2022-12-18T09:40:41;40.27;;;21.87;;
5171;SDS011;2605;49.770;9.868;2022-12-18T09:43:13;42.13;;;23.90;;
5171;SDS011;2605;49.770;9.868;2022-12-18T09:45:47;37.70;;;21.10;;
5171;SDS011;2605;49.770;9.868;2022-12-18T09:48:31;40.73;;;22.83;;
5171;SDS011;2605;49.770;9.868;2022-12-18T09:51:02;47.10;;;24.37;;
5171;SDS011;2605;49.770;9.868;2022-12-18T09:53:38;42.87;;;24.63;;
5171;SDS011;2605;49.770;9.868;2022-12-18T09:56:11;40.77;;;21.80;;
5171;SDS011;2605;49.770;9.868;2022-12-18T09:58:42;40.60;;;23.17;;
5171;SDS011;2605;49.770;9.868;2022-12-18T10:01:15;35.27;;;22.13;;
5171;SDS011;2605;49.770;9.868;2022-12-18T10:03:46;47.60;;;23.77;;
5171;SDS011;2605;49.770;9.868;2022-12-18T10:06:18;46.23;;;22.40;;
5171;SDS011;2605;49.770;9.868;2022-12-18T10:11:54;45.03;;;23.83;;
5171;SDS011;2605;49.770;9.868;2022-12-18T10:14:51;38.83;;;20.73;;
5171;SDS011;2605;49.770;9.868;2022-12-18T10:17:46;46.03;;;26.20;;
5171;SDS011;2605;49.770;9.868;2022-12-18T10:20:24;36.83;;;21.53;;
5171;SDS011;2605;49.770;9.868;2022-12-18T10:23:01;39.17;;;23.00;;
5171;SDS011;2605;49.770;9.868;2022-12-18T10:25:50;38.23;;;23.13;;
5171;SDS011;2605;49.770;9.868;2022-12-18T10:28:28;39.10;;;22.40;;
5171;SDS011;2605;49.770;9.868;2022-12-18T10:30:56;38.00;;;21.83;;
5171;SDS011;2605;49.770;9.868;2022-12-18T10:33:23;35.60;;;20.43;;
5171;SDS011;2605;49.770;9.868;2022-12-18T10:35:52;36.80;;;21.23;;
5171;SDS011;2605;49.770;9.868;2022-12-18T10:43:16;36.73;;;19.30;;
5171;SDS011;2605;49.770;9.868;2022-12-18T10:51:07;38.20;;;21.83;;
5171;SDS011;2605;49.770;9.868;2022-12-18T10:53:33;39.23;;;20.00;;
5171;SDS011;2605;49.770;9.868;2022-12-18T10:56:01;30.63;;;18.10;;
5171;SDS011;2605;49.770;9.868;2022-12-18T10:58:32;34.90;;;19.10;;
5171;SDS011;2605;49.770;9.868;2022-12-18T11:03:37;35.67;;;20.07;;
5171;SDS011;2605;49.770;9.868;2022-12-18T11:06:08;33.30;;;18.60;;
5171;SDS011;2605;49.770;9.868;2022-12-18T11:08:39;29.60;;;18.07;;
5171;SDS011;2605;49.770;9.868;2022-12-18T11:11:07;31.33;;;16.60;;
5171;SDS011;2605;49.770;9.868;2022-12-18T11:13:48;36.20;;;20.80;;
5171;SDS011;2605;49.770;9.868;2022-12-18T11:16:18;33.27;;;19.33;;
5171;SDS011;2605;49.770;9.868;2022-12-18T11:18:44;28.70;;;17.30;;
5171;SDS011;2605;49.770;9.868;2022-12-18T11:21:11;28.57;;;17.53;;
5171;SDS011;2605;49.770;9.868;2022-12-18T11:23:43;28.03;;;15.23;;
5171;SDS011;2605;49.770;9.868;2022-12-18T11:26:18;26.33;;;15.23;;
5171;SDS011;2605;49.770;9.868;2022-12-18T11:29:07;30.10;;;17.67;;
5171;SDS011;2605;49.770;9.868;2022-12-18T11:31:35;28.83;;;17.17;;
5171;SDS011;2605;49.770;9.868;2022-12-18T11:34:02;30.13;;;15.80;;
5171;SDS011;2605;49.770;9.868;2022-12-18T11:36:43;32.87;;;16.23;;
5171;SDS011;2605;49.770;9.868;2022-12-18T11:42:16;24.90;;;15.40;;
5171;SDS011;2605;49.770;9.868;2022-12-18T11:44:48;26.83;;;16.30;;
5171;SDS011;2605;49.770;9.868;2022-12-18T11:47:21;27.80;;;18.10;;
5171;SDS011;2605;49.770;9.868;2022-12-18T11:50:10;28.57;;;15.40;;
5171;SDS011;2605;49.770;9.868;2022-12-18T11:52:49;31.93;;;17.00;;
5171;SDS011;2605;49.770;9.868;2022-12-18T11:55:37;31.53;;;16.40;;
5171;SDS011;2605;49.770;9.868;2022-12-18T12:00:52;27.27;;;15.97;;
5171;SDS011;2605;49.770;9.868;2022-12-18T12:06:20;27.97;;;16.50;;
5171;SDS011;2605;49.770;9.868;2022-12-18T12:09:19;29.37;;;16.60;;
5171;SDS011;2605;49.770;9.868;2022-12-18T12:14:35;32.07;;;18.40;;
5171;SDS011;2605;49.770;9.868;2022-12-18T12:17:22;29.20;;;15.37;;
5171;SDS011;2605;49.770;9.868;2022-12-18T12:22:55;29.70;;;16.33;;
5171;SDS011;2605;49.770;9.868;2022-12-18T12:28:25;24.57;;;15.40;;
5171;SDS011;2605;49.770;9.868;2022-12-18T12:31:14;28.80;;;17.27;;
5171;SDS011;2605;49.770;9.868;2022-12-18T12:33:51;31.37;;;18.00;;
5171;SDS011;2605;49.770;9.868;2022-12-18T12:36:32;32.20;;;16.87;;
5171;SDS011;2605;49.770;9.868;2022-12-18T12:39:21;28.83;;;15.40;;
5171;SDS011;2605;49.770;9.868;2022-12-18T12:41:55;34.87;;;17.30;;
5171;SDS011;2605;49.770;9.868;2022-12-18T12:44:48;28.00;;;17.23;;
5171;SDS011;2605;49.770;9.868;2022-12-18T12:47:28;32.43;;;16.23;;
5171;SDS011;2605;49.770;9.868;2022-12-18T12:49:58;25.10;;;15.97;;
5171;SDS011;2605;49.770;9.868;2022-12-18T12:52:30;33.70;;;17.20;;
5171;SDS011;2605;49.770;9.868;2022-12-18T12:55:07;25.00;;;15.10;;
5171;SDS011;2605;49.770;9.868;2022-12-18T13:00:24;29.23;;;15.53;;
5171;SDS011;2605;49.770;9.868;2022-12-18T13:08:12;30.07;;;17.37;;
5171;SDS011;2605;49.770;9.868;2022-12-18T13:10:48;26.17;;;16.00;;
5171;SDS011;2605;49.770;9.868;2022-12-18T13:13:15;25.43;;;15.90;;
5171;SDS011;2605;49.770;9.868;2022-12-18T13:15:42;32.00;;;18.20;;
5171;SDS011;2605;49.770;9.868;2022-12-18T13:20:41;27.60;;;15.50;;
5171;SDS011;2605;49.770;9.868;2022-12-18T13:25:51;28.10;;;16.10;;
5171;SDS011;2605;49.770;9.868;2022-12-18T13:31:13;27.57;;;17.40;;
5171;SDS011;2605;49.770;9.868;2022-12-18T13:36:14;25.43;;;15.33;;
5171;SDS011;2605;49.770;9.868;2022-12-18T13:38:40;31.63;;;17.63;;
5171;SDS011;2605;49.770;9.868;2022-12-18T13:43:49;29.80;;;17.00;;
5171;SDS011;2605;49.770;9.868;2022-12-18T13:46:28;30.57;;;17.77;;
5171;SDS011;2605;49.770;9.868;2022-12-18T13:49:00;28.80;;;16.57;;
5171;SDS011;2605;49.770;9.868;2022-12-18T13:51:31;30.37;;;16.60;;
5171;SDS011;2605;49.770;9.868;2022-12-18T13:53:59;27.60;;;16.80;;
5171;SDS011;2605;49.770;9.868;2022-12-18T13:56:28;33.23;;;15.60;;
5171;SDS011;2605;49.770;9.868;2022-12-18T14:04:44;30.60;;;18.20;;
5171;SDS011;2605;49.770;9.868;2022-12-18T14:09:46;26.67;;;16.77;;
5171;SDS011;2605;49.770;9.868;2022-12-18T14:15:06;30.43;;;16.67;;
5171;SDS011;2605;49.770;9.868;2022-12-18T14:20:24;32.70;;;18.50;;
5171;SDS011;2605;49.770;9.868;2022-12-18T14:22:54;32.53;;;17.17;;
5171;SDS011;2605;49.770;9.868;2022-12-18T14:25:22;33.27;;;17.27;;
5171;SDS011;2605;49.770;9.868;2022-12-18T14:27:50;33.47;;;17.87;;
5171;SDS011;2605;49.770;9.868;2022-12-18T14:30:32;31.87;;;17.23;;
5171;SDS011;2605;49.770;9.868;2022-12-18T14:33:04;32.30;;;16.40;;
5171;SDS011;2605;49.770;9.868;2022-12-18T14:35:33;33.90;;;18.07;;
5171;SDS011;2605;49.770;9.868;2022-12-18T14:40:47;29.10;;;17.90;;
5171;SDS011;2605;49.770;9.868;2022-12-18T14:43:16;28.37;;;16.00;;
5171;SDS011;2605;49.770;9.868;2022-12-18T14:45:43;31.93;;;17.57;;
5171;SDS011;2605;49.770;9.868;2022-12-18T14:48:15;30.17;;;18.20;;
5171;SDS011;2605;49.770;9.868;2022-12-18T14:51:05;33.03;;;17.93;;
5171;SDS011;2605;49.770;9.868;2022-12-18T14:55:59;32.83;;;18.67;;
5171;SDS011;2605;49.770;9.868;2022-12-18T14:58:25;28.30;;;16.80;;
5171;SDS011;2605;49.770;9.868;2022-12-18T15:00:51;40.07;;;18.77;;
5171;SDS011;2605;49.770;9.868;2022-12-18T15:03:20;33.13;;;16.93;;
5171;SDS011;2605;49.770;9.868;2022-12-18T15:05:46;27.30;;;16.40;;
5171;SDS011;2605;49.770;9.868;2022-12-18T15:08:29;29.03;;;18.50;;
5171;SDS011;2605;49.770;9.868;2022-12-18T15:11:02;33.50;;;18.33;;
5171;SDS011;2605;49.770;9.868;2022-12-18T15:13:28;28.67;;;15.93;;
5171;SDS011;2605;49.770;9.868;2022-12-18T15:15:54;29.53;;;18.07;;
5171;SDS011;2605;49.770;9.868;2022-12-18T15:18:25;33.60;;;17.80;;
5171;SDS011;2605;49.770;9.868;2022-12-18T15:20:57;28.30;;;16.50;;
5171;SDS011;2605;49.770;9.868;2022-12-18T15:26:16;33.83;;;17.80;;
5171;SDS011;2605;49.770;9.868;2022-12-18T15:28:44;37.20;;;18.03;;
5171;SDS011;2605;49.770;9.868;2022-12-18T15:33:44;31.03;;;18.07;;
5171;SDS011;2605;49.770;9.868;2022-12-18T15:36:26;30.33;;;18.10;;
5171;SDS011;2605;49.770;9.868;2022-12-18T15:38:52;35.40;;;19.37;;
5171;SDS011;2605;49.770;9.868;2022-12-18T15:41:19;39.80;;;19.80;;
5171;SDS011;2605;49.770;9.868;2022-12-18T15:43:46;31.83;;;17.80;;
5171;SDS011;2605;49.770;9.868;2022-12-18T15:46:23;33.13;;;17.20;;
5171;SDS011;2605;49.770;9.868;2022-12-18T15:48:53;33.53;;;17.07;;
5171;SDS011;2605;49.770;9.868;2022-12-18T15:53:48;35.03;;;18.77;;
5171;SDS011;2605;49.770;9.868;2022-12-18T15:56:17;33.33;;;17.83;;
5171;SDS011;2605;49.770;9.868;2022-12-18T15:59:02;33.23;;;17.73;;
5171;SDS011;2605;49.770;9.868;2022-12-18T16:01:30;31.40;;;18.77;;
5171;SDS011;2605;49.770;9.868;2022-12-18T16:03:58;30.00;;;17.70;;
5171;SDS011;2605;49.770;9.868;2022-12-18T16:06:23;32.40;;;16.80;;
5171;SDS011;2605;49.770;9.868;2022-12-18T16:08:49;27.37;;;16.47;;
5171;SDS011;2605;49.770;9.868;2022-12-18T16:11:20;34.80;;;18.20;;
5171;SDS011;2605;49.770;9.868;2022-12-18T16:14:05;30.83;;;16.30;;
5171;SDS011;2605;49.770;9.868;2022-12-18T16:16:48;31.63;;;17.37;;
5171;SDS011;2605;49.770;9.868;2022-12-18T16:19:16;36.33;;;17.90;;
5171;SDS011;2605;49.770;9.868;2022-12-18T16:21:42;33.57;;;18.23;;
5171;SDS011;2605;49.770;9.868;2022-12-18T16:24:12;37.93;;;18.70;;
5171;SDS011;2605;49.770;9.868;2022-12-18T16:26:42;37.73;;;19.60;;
5171;SDS011;2605;49.770;9.868;2022-12-18T16:29:09;32.37;;;17.90;;
5171;SDS011;2605;49.770;9.868;2022-12-18T16:31:34;32.73;;;17.97;;
5171;SDS011;2605;49.770;9.868;2022-12-18T16:34:18;28.90;;;18.50;;
5171;SDS011;2605;49.770;9.868;2022-12-18T16:36:49;34.13;;;18.10;;
5171;SDS011;2605;49.770;9.868;2022-12-18T16:39:15;29.73;;;17.60;;
5171;SDS011;2605;49.770;9.868;2022-12-18T16:41:41;33.20;;;15.90;;
5171;SDS011;2605;49.770;9.868;2022-12-18T16:44:06;33.87;;;18.57;;
5171;SDS011;2605;49.770;9.868;2022-12-18T16:46:32;33.40;;;18.40;;